sensor_id;sensor_type;location;lat;lon;timestamp;pressure;altitude;pressure_sealevel;temperature;humidity
39243;BME280;29823;47.404;8.566;2023-02-21T00:02:19;96990.94;;;4.27;100.00
39243;BME280;29823;47.404;8.566;2023-02-21T00:05:06;96988.03;;;4.22;100.00
39243;BME280;29823;47.404;8.566;2023-02-21T00:07:51;96993.00;;;4.03;100.00
39243;BME280;29823;47.404;8.566;2023-02-21T00:10:36;97000.16;;;3.80;100.00
39243;BME280;29823;47.404;8.566;2023-02-21T00:13:22;96996.66;;;3.79;100.00
39243;BME280;29823;47.404;8.566;2023-02-21T00:16:07;96996.03;;;3.77;100.00
39243;BME280;29823;47.404;8.566;2023-02-21T00:18:53;96993.09;;;3.72;100.00
39243;BME280;29823;47.404;8.566;2023-02-21T00:21:39;96989.75;;;3.78;100.00
39243;BME280;29823;47.404;8.566;2023-02-21T00:24:24;96985.53;;;3.69;100.00
39243;BME280;29823;47.404;8.566;2023-02-21T00:27:10;96989.44;;;3.73;100.00
39243;BME280;29823;47.404;8.566;2023-02-21T00:29:56;96975.66;;;3.63;100.00
39243;BME280;29823;47.404;8.566;2023-02-21T00:32:42;96973.41;;;3.52;100.00
39243;BME280;29823;47.404;8.566;2023-02-21T00:35:27;96972.16;;;3.48;100.00
39243;BME280;29823;47.404;8.566;2023-02-21T00:38:14;96966.88;;;3.48;100.00
39243;BME280;29823;47.404;8.566;2023-02-21T00:40:59;96962.44;;;3.63;100.00
39243;BME280;29823;47.404;8.566;2023-02-21T00:43:44;96958.09;;;3.48;100.00
39243;BME280;29823;47.404;8.566;2023-02-21T00:46:30;96956.88;;;3.58;100.00
39243;BME280;29823;47.404;8.566;2023-02-21T00:49:15;96957.84;;;3.57;100.00
39243;BME280;29823;47.404;8.566;2023-02-21T00:52:01;96949.63;;;3.52;100.00
39243;BME280;29823;47.404;8.566;2023-02-21T00:54:47;96951.75;;;3.34;100.00
39243;BME280;29823;47.404;8.566;2023-02-21T00:57:33;96953.75;;;3.32;100.00
39243;BME280;29823;47.404;8.566;2023-02-21T01:00:20;96947.00;;;3.30;100.00
39243;BME280;29823;47.404;8.566;2023-02-21T01:03:07;96952.06;;;3.39;100.00
39243;BME280;29823;47.404;8.566;2023-02-21T01:05:53;96955.53;;;3.40;100.00
39243;BME280;29823;47.404;8.566;2023-02-21T01:08:40;96958.50;;;3.37;100.00
39243;BME280;29823;47.404;8.566;2023-02-21T01:11:27;96961.91;;;3.23;100.00
39243;BME280;29823;47.404;8.566;2023-02-21T01:14:12;96963.66;;;3.30;100.00
39243;BME280;29823;47.404;8.566;2023-02-21T01:16:58;96959.91;;;3.25;100.00
39243;BME280;29823;47.404;8.566;2023-02-21T01:19:44;96954.69;;;3.39;100.00
39243;BME280;29823;47.404;8.566;2023-02-21T01:22:29;96962.00;;;3.37;100.00
39243;BME280;29823;47.404;8.566;2023-02-21T01:25:16;96958.09;;;3.25;100.00
39243;BME280;29823;47.404;8.566;2023-02-21T01:28:05;96917.28;;;3.05;100.00
39243;BME280;29823;47.404;8.566;2023-02-21T01:30:51;96951.13;;;3.32;100.00
39243;BME280;29823;47.404;8.566;2023-02-21T01:33:38;96946.88;;;3.23;100.00
39243;BME280;29823;47.404;8.566;2023-02-21T01:36:24;96928.84;;;3.27;100.00
39243;BME280;29823;47.404;8.566;2023-02-21T01:39:10;96941.00;;;3.36;100.00
39243;BME280;29823;47.404;8.566;2023-02-21T01:41:56;96911.06;;;3.21;100.00
39243;BME280;29823;47.404;8.566;2023-02-21T01:44:44;96930.31;;;3.29;100.00
39243;BME280;29823;47.404;8.566;2023-02-21T01:47:31;96926.38;;;3.25;100.00
39243;BME280;29823;47.404;8.566;2023-02-21T01:50:19;96932.66;;;3.24;100.00
39243;BME280;29823;47.404;8.566;2023-02-21T01:53:07;96925.81;;;3.15;100.00
39243;BME280;29823;47.404;8.566;2023-02-21T01:55:55;96934.06;;;3.12;100.00
39243;BME280;29823;47.404;8.566;2023-02-21T01:58:42;96926.84;;;3.06;100.00
39243;BME280;29823;47.404;8.566;2023-02-21T02:01:34;96932.44;;;3.11;100.00
39243;BME280;29823;47.404;8.566;2023-02-21T02:04:21;96928.31;;;3.09;100.00
39243;BME280;29823;47.404;8.566;2023-02-21T02:07:06;96937.06;;;3.09;100.00
39243;BME280;29823;47.404;8.566;2023-02-21T02:09:51;96931.09;;;3.15;100.00
39243;BME280;29823;47.404;8.566;2023-02-21T02:12:50;96937.19;;;3.16;100.00
39243;BME280;29823;47.404;8.566;2023-02-21T02:15:53;96939.34;;;3.12;100.00
39243;BME280;29823;47.404;8.566;2023-02-21T02:18:45;96934.41;;;3.09;100.00
39243;BME280;29823;47.404;8.566;2023-02-21T02:21:56;96938.72;;;3.10;100.00
39243;BME280;29823;47.404;8.566;2023-02-21T02:24:42;96935.25;;;3.10;100.00
39243;BME280;29823;47.404;8.566;2023-02-21T02:27:30;96924.75;;;3.02;100.00
39243;BME280;29823;47.404;8.566;2023-02-21T02:30:15;96938.44;;;2.97;100.00
39243;BME280;29823;47.404;8.566;2023-02-21T02:35:43;96932.06;;;2.92;100.00
39243;BME280;29823;47.404;8.566;2023-02-21T02:38:18;96931.84;;;3.01;100.00
39243;BME280;29823;47.404;8.566;2023-02-21T02:40:56;96931.69;;;2.95;100.00
39243;BME280;29823;47.404;8.566;2023-02-21T02:43:29;96926.19;;;2.82;100.00
39243;BME280;29823;47.404;8.566;2023-02-21T02:46:03;96927.66;;;2.84;100.00
39243;BME280;29823;47.404;8.566;2023-02-21T02:48:36;96935.56;;;2.84;100.00
39243;BME280;29823;47.404;8.566;2023-02-21T02:51:10;96931.41;;;2.90;100.00
39243;BME280;29823;47.404;8.566;2023-02-21T02:53:38;96933.03;;;2.91;100.00
39243;BME280;29823;47.404;8.566;2023-02-21T02:56:08;96926.88;;;2.98;100.00
39243;BME280;29823;47.404;8.566;2023-02-21T02:58:39;96932.53;;;2.95;100.00
39243;BME280;29823;47.404;8.566;2023-02-21T03:01:19;96920.06;;;2.81;100.00
39243;BME280;29823;47.404;8.566;2023-02-21T03:04:15;96926.03;;;2.75;100.00
39243;BME280;29823;47.404;8.566;2023-02-21T03:06:53;96927.38;;;2.71;100.00
39243;BME280;29823;47.404;8.566;2023-02-21T03:09:30;96928.03;;;2.73;100.00
39243;BME280;29823;47.404;8.566;2023-02-21T03:12:04;96931.78;;;2.79;100.00
39243;BME280;29823;47.404;8.566;2023-02-21T03:14:38;96920.22;;;2.80;100.00
39243;BME280;29823;47.404;8.566;2023-02-21T03:17:11;96913.47;;;2.77;100.00
39243;BME280;29823;47.404;8.566;2023-02-21T03:19:43;96913.97;;;2.81;100.00
39243;BME280;29823;47.404;8.566;2023-02-21T03:22:15;96923.69;;;2.80;100.00
39243;BME280;29823;47.404;8.566;2023-02-21T03:24:47;96916.63;;;2.81;100.00
39243;BME280;29823;47.404;8.566;2023-02-21T03:27:17;96919.06;;;2.82;100.00
39243;BME280;29823;47.404;8.566;2023-02-21T03:29:47;96925.03;;;2.76;100.00
39243;BME280;29823;47.404;8.566;2023-02-21T03:32:18;96917.94;;;2.77;100.00
39243;BME280;29823;47.404;8.566;2023-02-21T03:34:47;96923.91;;;2.71;100.00
39243;BME280;29823;47.404;8.566;2023-02-21T03:37:21;96933.19;;;2.67;100.00
39243;BME280;29823;47.404;8.566;2023-02-21T03:39:55;96931.69;;;2.64;100.00
39243;BME280;29823;47.404;8.566;2023-02-21T03:42:23;96930.38;;;2.68;100.00
39243;BME280;29823;47.404;8.566;2023-02-21T03:44:51;96928.38;;;2.70;100.00
39243;BME280;29823;47.404;8.566;2023-02-21T03:47:19;96920.13;;;2.73;100.00
39243;BME280;29823;47.404;8.566;2023-02-21T03:49:46;96927.06;;;2.66;100.00
39243;BME280;29823;47.404;8.566;2023-02-21T03:52:14;96926.03;;;2.75;100.00
39243;BME280;29823;47.404;8.566;2023-02-21T03:54:43;96935.47;;;3.00;100.00
39243;BME280;29823;47.404;8.566;2023-02-21T03:57:11;96924.22;;;3.06;100.00
39243;BME280;29823;47.404;8.566;2023-02-21T03:59:39;96922.22;;;3.08;100.00
39243;BME280;29823;47.404;8.566;2023-02-21T04:02:07;96919.34;;;2.95;100.00
39243;BME280;29823;47.404;8.566;2023-02-21T04:04:35;96923.38;;;2.83;100.00
39243;BME280;29823;47.404;8.566;2023-02-21T04:07:03;96916.16;;;2.69;100.00
39243;BME280;29823;47.404;8.566;2023-02-21T04:09:31;96920.56;;;2.46;100.00
39243;BME280;29823;47.404;8.566;2023-02-21T04:12:00;96913.22;;;2.26;100.00
39243;BME280;29823;47.404;8.566;2023-02-21T04:14:28;96917.38;;;2.20;100.00
39243;BME280;29823;47.404;8.566;2023-02-21T04:16:56;96913.09;;;2.19;100.00
39243;BME280;29823;47.404;8.566;2023-02-21T04:19:23;96907.66;;;2.21;100.00
39243;BME280;29823;47.404;8.566;2023-02-21T04:21:51;96898.06;;;2.20;100.00
39243;BME280;29823;47.404;8.566;2023-02-21T04:24:19;96912.41;;;2.17;100.00
39243;BME280;29823;47.404;8.566;2023-02-21T04:26:47;96918.88;;;2.07;100.00
39243;BME280;29823;47.404;8.566;2023-02-21T04:29:17;96899.78;;;2.05;100.00
39243;BME280;29823;47.404;8.566;2023-02-21T04:31:45;96907.19;;;2.09;100.00
39243;BME280;29823;47.404;8.566;2023-02-21T04:34:12;96913.13;;;2.03;100.00
39243;BME280;29823;47.404;8.566;2023-02-21T04:36:40;96916.94;;;2.01;100.00
39243;BME280;29823;47.404;8.566;2023-02-21T04:39:09;96924.38;;;1.97;100.00
39243;BME280;29823;47.404;8.566;2023-02-21T04:41:36;96926.00;;;1.98;100.00
39243;BME280;29823;47.404;8.566;2023-02-21T04:44:05;96913.19;;;1.87;100.00
39243;BME280;29823;47.404;8.566;2023-02-21T04:46:34;96926.50;;;2.02;100.00
39243;BME280;29823;47.404;8.566;2023-02-21T04:49:02;96929.91;;;2.10;100.00
39243;BME280;29823;47.404;8.566;2023-02-21T04:51:30;96927.28;;;2.10;100.00
39243;BME280;29823;47.404;8.566;2023-02-21T04:53:58;96926.66;;;2.00;100.00
39243;BME280;29823;47.404;8.566;2023-02-21T04:56:26;96933.25;;;2.04;100.00
39243;BME280;29823;47.404;8.566;2023-02-21T04:58:55;96936.03;;;2.03;100.00
39243;BME280;29823;47.404;8.566;2023-02-21T05:01:26;96937.03;;;2.02;100.00
39243;BME280;29823;47.404;8.566;2023-02-21T05:03:56;96939.19;;;1.98;100.00
39243;BME280;29823;47.404;8.566;2023-02-21T05:06:25;96933.75;;;2.00;100.00
39243;BME280;29823;47.404;8.566;2023-02-21T05:08:54;96928.97;;;2.03;100.00
39243;BME280;29823;47.404;8.566;2023-02-21T05:11:22;96934.38;;;2.10;100.00
39243;BME280;29823;47.404;8.566;2023-02-21T05:13:51;96926.66;;;2.08;100.00
39243;BME280;29823;47.404;8.566;2023-02-21T05:16:19;96912.50;;;1.93;100.00
39243;BME280;29823;47.404;8.566;2023-02-21T05:18:48;96925.38;;;1.88;100.00
39243;BME280;29823;47.404;8.566;2023-02-21T05:21:19;96921.41;;;1.84;100.00
39243;BME280;29823;47.404;8.566;2023-02-21T05:23:47;96906.44;;;1.85;100.00
39243;BME280;29823;47.404;8.566;2023-02-21T05:26:23;96922.25;;;1.85;100.00
39243;BME280;29823;47.404;8.566;2023-02-21T05:28:52;96917.81;;;1.77;100.00
39243;BME280;29823;47.404;8.566;2023-02-21T05:31:20;96921.28;;;1.78;100.00
39243;BME280;29823;47.404;8.566;2023-02-21T05:33:48;96917.44;;;1.88;100.00
39243;BME280;29823;47.404;8.566;2023-02-21T05:36:16;96923.72;;;1.87;100.00
39243;BME280;29823;47.404;8.566;2023-02-21T05:38:47;96924.88;;;1.85;100.00
39243;BME280;29823;47.404;8.566;2023-02-21T05:41:16;96922.72;;;1.88;100.00
39243;BME280;29823;47.404;8.566;2023-02-21T05:43:45;96923.03;;;1.85;100.00
39243;BME280;29823;47.404;8.566;2023-02-21T05:46:21;96923.03;;;1.93;100.00
39243;BME280;29823;47.404;8.566;2023-02-21T05:48:50;96924.03;;;1.92;100.00
39243;BME280;29823;47.404;8.566;2023-02-21T05:51:18;96923.84;;;1.94;100.00
39243;BME280;29823;47.404;8.566;2023-02-21T05:53:48;96934.91;;;1.89;100.00
39243;BME280;29823;47.404;8.566;2023-02-21T05:56:16;96925.69;;;1.85;100.00
39243;BME280;29823;47.404;8.566;2023-02-21T05:58:44;96918.28;;;1.89;100.00
39243;BME280;29823;47.404;8.566;2023-02-21T06:01:12;96930.63;;;1.88;100.00
39243;BME280;29823;47.404;8.566;2023-02-21T06:03:40;96928.50;;;1.84;100.00
39243;BME280;29823;47.404;8.566;2023-02-21T06:06:09;96927.19;;;1.80;100.00
39243;BME280;29823;47.404;8.566;2023-02-21T06:08:44;96919.94;;;1.90;100.00
39243;BME280;29823;47.404;8.566;2023-02-21T06:11:20;96922.00;;;2.10;100.00
39243;BME280;29823;47.404;8.566;2023-02-21T06:13:50;96909.09;;;2.23;100.00
39243;BME280;29823;47.404;8.566;2023-02-21T06:16:18;96921.25;;;2.40;100.00
39243;BME280;29823;47.404;8.566;2023-02-21T06:18:48;96929.13;;;2.48;100.00
39243;BME280;29823;47.404;8.566;2023-02-21T06:21:17;96925.16;;;2.52;100.00
39243;BME280;29823;47.404;8.566;2023-02-21T06:23:45;96931.13;;;2.46;100.00
39243;BME280;29823;47.404;8.566;2023-02-21T06:26:15;96926.34;;;2.50;100.00
39243;BME280;29823;47.404;8.566;2023-02-21T06:28:44;96934.41;;;2.48;100.00
39243;BME280;29823;47.404;8.566;2023-02-21T06:31:12;96936.72;;;2.43;100.00
39243;BME280;29823;47.404;8.566;2023-02-21T06:33:40;96935.78;;;2.28;100.00
39243;BME280;29823;47.404;8.566;2023-02-21T06:36:11;96943.72;;;2.28;100.00
39243;BME280;29823;47.404;8.566;2023-02-21T06:38:39;96947.50;;;2.26;100.00
39243;BME280;29823;47.404;8.566;2023-02-21T06:41:08;96942.59;;;2.23;100.00
39243;BME280;29823;47.404;8.566;2023-02-21T06:43:37;96949.69;;;2.06;100.00
39243;BME280;29823;47.404;8.566;2023-02-21T06:46:05;96951.06;;;1.78;100.00
39243;BME280;29823;47.404;8.566;2023-02-21T06:48:33;96954.06;;;1.67;100.00
39243;BME280;29823;47.404;8.566;2023-02-21T06:51:00;96947.47;;;1.63;100.00
39243;BME280;29823;47.404;8.566;2023-02-21T06:53:28;96964.59;;;1.75;100.00
39243;BME280;29823;47.404;8.566;2023-02-21T06:55:56;96951.75;;;1.72;100.00
39243;BME280;29823;47.404;8.566;2023-02-21T06:58:24;96965.91;;;1.87;100.00
39243;BME280;29823;47.404;8.566;2023-02-21T07:00:53;96965.75;;;1.89;100.00
39243;BME280;29823;47.404;8.566;2023-02-21T07:03:23;96959.31;;;1.83;100.00
39243;BME280;29823;47.404;8.566;2023-02-21T07:05:52;96960.47;;;1.89;100.00
39243;BME280;29823;47.404;8.566;2023-02-21T07:08:19;96963.41;;;2.02;100.00
39243;BME280;29823;47.404;8.566;2023-02-21T07:10:47;96966.66;;;2.20;100.00
39243;BME280;29823;47.404;8.566;2023-02-21T07:13:15;96970.41;;;2.41;100.00
39243;BME280;29823;47.404;8.566;2023-02-21T07:15:43;96967.75;;;2.33;100.00
39243;BME280;29823;47.404;8.566;2023-02-21T07:18:12;96972.72;;;2.36;100.00
39243;BME280;29823;47.404;8.566;2023-02-21T07:20:40;96973.84;;;2.50;100.00
39243;BME280;29823;47.404;8.566;2023-02-21T07:23:08;96984.47;;;2.72;100.00
39243;BME280;29823;47.404;8.566;2023-02-21T07:25:35;96981.72;;;2.96;100.00
39243;BME280;29823;47.404;8.566;2023-02-21T07:28:04;96966.84;;;3.26;100.00
39243;BME280;29823;47.404;8.566;2023-02-21T07:30:31;96967.47;;;3.58;100.00
39243;BME280;29823;47.404;8.566;2023-02-21T07:33:00;96974.47;;;3.88;100.00
39243;BME280;29823;47.404;8.566;2023-02-21T07:35:29;96969.38;;;4.01;100.00
39243;BME280;29823;47.404;8.566;2023-02-21T07:37:57;96969.78;;;4.27;100.00
39243;BME280;29823;47.404;8.566;2023-02-21T07:40:25;96964.88;;;4.24;100.00
39243;BME280;29823;47.404;8.566;2023-02-21T07:42:52;96975.09;;;4.71;100.00
39243;BME280;29823;47.404;8.566;2023-02-21T07:45:23;96978.84;;;5.26;100.00
39243;BME280;29823;47.404;8.566;2023-02-21T07:47:51;96970.47;;;5.08;100.00
39243;BME280;29823;47.404;8.566;2023-02-21T07:50:19;96962.94;;;4.91;100.00
39243;BME280;29823;47.404;8.566;2023-02-21T07:52:50;96962.84;;;5.20;100.00
39243;BME280;29823;47.404;8.566;2023-02-21T07:55:18;96962.31;;;5.45;100.00
39243;BME280;29823;47.404;8.566;2023-02-21T07:57:47;96955.81;;;5.69;100.00
39243;BME280;29823;47.404;8.566;2023-02-21T08:00:15;96967.66;;;6.42;100.00
39243;BME280;29823;47.404;8.566;2023-02-21T08:02:45;96957.34;;;6.94;100.00
39243;BME280;29823;47.404;8.566;2023-02-21T08:05:15;96957.94;;;6.49;100.00
39243;BME280;29823;47.404;8.566;2023-02-21T08:07:43;96961.56;;;7.29;100.00
39243;BME280;29823;47.404;8.566;2023-02-21T08:10:18;96960.97;;;7.40;100.00
39243;BME280;29823;47.404;8.566;2023-02-21T08:12:47;96951.38;;;7.46;100.00
39243;BME280;29823;47.404;8.566;2023-02-21T08:15:15;96956.97;;;7.90;100.00
39243;BME280;29823;47.404;8.566;2023-02-21T08:17:43;96955.56;;;7.94;100.00
39243;BME280;29823;47.404;8.566;2023-02-21T08:20:11;96951.06;;;8.20;100.00
39243;BME280;29823;47.404;8.566;2023-02-21T08:22:38;96956.97;;;8.03;100.00
39243;BME280;29823;47.404;8.566;2023-02-21T08:25:08;96951.03;;;8.07;100.00
39243;BME280;29823;47.404;8.566;2023-02-21T08:27:39;96944.47;;;8.42;100.00
39243;BME280;29823;47.404;8.566;2023-02-21T08:30:09;96932.19;;;8.41;100.00
39243;BME280;29823;47.404;8.566;2023-02-21T08:32:37;96951.41;;;8.69;100.00
39243;BME280;29823;47.404;8.566;2023-02-21T08:35:06;96948.75;;;9.26;100.00
39243;BME280;29823;47.404;8.566;2023-02-21T08:37:36;96958.56;;;9.32;100.00
39243;BME280;29823;47.404;8.566;2023-02-21T08:40:11;96948.50;;;9.34;100.00
39243;BME280;29823;47.404;8.566;2023-02-21T08:42:40;96941.22;;;9.54;100.00
39243;BME280;29823;47.404;8.566;2023-02-21T08:45:14;96942.50;;;9.76;100.00
39243;BME280;29823;47.404;8.566;2023-02-21T08:47:43;96943.84;;;9.92;100.00
39243;BME280;29823;47.404;8.566;2023-02-21T08:50:11;96936.16;;;10.93;97.16
39243;BME280;29823;47.404;8.566;2023-02-21T08:52:39;96936.84;;;10.46;100.00
39243;BME280;29823;47.404;8.566;2023-02-21T08:55:07;96929.56;;;11.07;95.86
39243;BME280;29823;47.404;8.566;2023-02-21T08:57:35;96935.00;;;10.83;96.04
39243;BME280;29823;47.404;8.566;2023-02-21T09:00:05;96937.78;;;10.76;94.16
39243;BME280;29823;47.404;8.566;2023-02-21T09:02:36;96930.44;;;10.90;95.96
39243;BME280;29823;47.404;8.566;2023-02-21T09:05:07;96932.50;;;11.06;99.62
39243;BME280;29823;47.404;8.566;2023-02-21T09:07:35;96927.88;;;11.60;92.31
39243;BME280;29823;47.404;8.566;2023-02-21T09:10:04;96931.91;;;11.51;93.30
39243;BME280;29823;47.404;8.566;2023-02-21T09:12:32;96924.44;;;12.35;84.06
39243;BME280;29823;47.404;8.566;2023-02-21T09:15:00;96928.25;;;12.05;80.96
39243;BME280;29823;47.404;8.566;2023-02-21T09:17:29;96922.59;;;12.13;86.63
39243;BME280;29823;47.404;8.566;2023-02-21T09:19:59;96925.25;;;12.93;80.34
39243;BME280;29823;47.404;8.566;2023-02-21T09:22:27;96920.94;;;12.81;78.31
39243;BME280;29823;47.404;8.566;2023-02-21T09:24:57;96910.41;;;13.25;76.55
39243;BME280;29823;47.404;8.566;2023-02-21T09:27:24;96900.59;;;13.19;75.97
39243;BME280;29823;47.404;8.566;2023-02-21T09:30:04;96904.94;;;14.37;69.11
39243;BME280;29823;47.404;8.566;2023-02-21T09:32:33;96900.84;;;13.74;72.03
39243;BME280;29823;47.404;8.566;2023-02-21T09:35:03;96894.75;;;13.78;70.96
39243;BME280;29823;47.404;8.566;2023-02-21T09:37:31;96897.53;;;12.19;81.34
39243;BME280;29823;47.404;8.566;2023-02-21T09:39:59;96884.31;;;12.63;76.80
39243;BME280;29823;47.404;8.566;2023-02-21T09:42:29;96892.63;;;12.50;77.47
39243;BME280;29823;47.404;8.566;2023-02-21T09:44:58;96888.59;;;11.84;84.64
39243;BME280;29823;47.404;8.566;2023-02-21T09:47:32;96886.34;;;12.33;82.46
39243;BME280;29823;47.404;8.566;2023-02-21T09:50:06;96883.34;;;11.77;83.81
39243;BME280;29823;47.404;8.566;2023-02-21T09:52:39;96877.22;;;12.00;82.36
39243;BME280;29823;47.404;8.566;2023-02-21T09:55:13;96870.69;;;11.84;85.71
39243;BME280;29823;47.404;8.566;2023-02-21T09:57:42;96868.72;;;11.32;92.27
39243;BME280;29823;47.404;8.566;2023-02-21T10:00:16;96874.63;;;11.52;89.53
39243;BME280;29823;47.404;8.566;2023-02-21T10:02:53;96875.28;;;11.36;93.24
39243;BME280;29823;47.404;8.566;2023-02-21T10:05:32;96873.78;;;11.40;94.11
39243;BME280;29823;47.404;8.566;2023-02-21T10:08:05;96872.03;;;11.75;88.69
39243;BME280;29823;47.404;8.566;2023-02-21T10:10:42;96872.53;;;11.84;84.92
39243;BME280;29823;47.404;8.566;2023-02-21T10:13:21;96863.78;;;11.47;86.10
39243;BME280;29823;47.404;8.566;2023-02-21T10:15:54;96862.88;;;11.53;87.17
39243;BME280;29823;47.404;8.566;2023-02-21T10:18:32;96846.81;;;11.53;91.79
39243;BME280;29823;47.404;8.566;2023-02-21T10:21:10;96862.66;;;12.07;83.95
39243;BME280;29823;47.404;8.566;2023-02-21T10:23:41;96853.31;;;11.98;89.85
39243;BME280;29823;47.404;8.566;2023-02-21T10:26:12;96856.84;;;12.10;81.65
39243;BME280;29823;47.404;8.566;2023-02-21T10:28:41;96851.13;;;12.18;83.02
39243;BME280;29823;47.404;8.566;2023-02-21T10:31:13;96851.69;;;12.20;86.02
39243;BME280;29823;47.404;8.566;2023-02-21T10:33:43;96845.19;;;12.28;78.99
39243;BME280;29823;47.404;8.566;2023-02-21T10:36:16;96836.78;;;12.24;77.93
39243;BME280;29823;47.404;8.566;2023-02-21T10:38:53;96839.91;;;13.18;75.34
39243;BME280;29823;47.404;8.566;2023-02-21T10:41:22;96817.63;;;13.06;73.38
39243;BME280;29823;47.404;8.566;2023-02-21T10:43:54;96779.38;;;13.27;71.34
39243;BME280;29823;47.404;8.566;2023-02-21T10:46:29;96809.25;;;13.92;70.10
39243;BME280;29823;47.404;8.566;2023-02-21T10:49:12;96826.78;;;13.50;73.93
39243;BME280;29823;47.404;8.566;2023-02-21T10:51:45;96825.13;;;12.93;71.56
39243;BME280;29823;47.404;8.566;2023-02-21T10:54:18;96827.31;;;13.63;72.71
39243;BME280;29823;47.404;8.566;2023-02-21T10:56:47;96818.19;;;13.64;70.93
39243;BME280;29823;47.404;8.566;2023-02-21T10:59:20;96823.25;;;14.43;65.78
39243;BME280;29823;47.404;8.566;2023-02-21T11:01:51;96810.13;;;15.91;60.70
39243;BME280;29823;47.404;8.566;2023-02-21T11:04:28;96811.47;;;15.88;61.25
39243;BME280;29823;47.404;8.566;2023-02-21T11:07:01;96798.19;;;16.18;61.27
39243;BME280;29823;47.404;8.566;2023-02-21T11:09:38;96801.63;;;16.87;57.80
39243;BME280;29823;47.404;8.566;2023-02-21T11:12:19;96791.31;;;17.55;55.58
39243;BME280;29823;47.404;8.566;2023-02-21T11:15:16;96780.50;;;17.65;53.45
39243;BME280;29823;47.404;8.566;2023-02-21T11:17:44;96776.63;;;17.36;51.83
39243;BME280;29823;47.404;8.566;2023-02-21T11:20:18;96771.31;;;17.96;51.36
39243;BME280;29823;47.404;8.566;2023-02-21T11:22:48;96768.44;;;17.01;54.21
39243;BME280;29823;47.404;8.566;2023-02-21T11:25:22;96763.66;;;16.57;57.80
39243;BME280;29823;47.404;8.566;2023-02-21T11:28:05;96755.00;;;17.31;54.26
39243;BME280;29823;47.404;8.566;2023-02-21T11:30:48;96746.09;;;18.21;53.05
39243;BME280;29823;47.404;8.566;2023-02-21T11:33:19;96750.13;;;17.23;53.11
39243;BME280;29823;47.404;8.566;2023-02-21T11:35:50;96738.19;;;17.09;54.85
39243;BME280;29823;47.404;8.566;2023-02-21T11:38:32;96732.09;;;17.64;53.22
39243;BME280;29823;47.404;8.566;2023-02-21T11:41:03;96730.34;;;17.03;52.59
39243;BME280;29823;47.404;8.566;2023-02-21T11:43:45;96727.44;;;17.34;54.10
39243;BME280;29823;47.404;8.566;2023-02-21T11:46:18;96707.19;;;18.07;53.66
39243;BME280;29823;47.404;8.566;2023-02-21T11:48:58;96710.66;;;18.12;52.59
39243;BME280;29823;47.404;8.566;2023-02-21T11:51:33;96709.59;;;17.33;51.29
39243;BME280;29823;47.404;8.566;2023-02-21T11:54:06;96706.25;;;16.86;52.96
39243;BME280;29823;47.404;8.566;2023-02-21T11:56:42;96697.16;;;17.17;53.64
39243;BME280;29823;47.404;8.566;2023-02-21T11:59:24;96686.13;;;17.74;51.89
39243;BME280;29823;47.404;8.566;2023-02-21T12:02:14;96679.97;;;16.57;53.59
39243;BME280;29823;47.404;8.566;2023-02-21T12:05:00;96669.56;;;17.10;53.36
39243;BME280;29823;47.404;8.566;2023-02-21T12:07:36;96674.44;;;17.13;52.66
39243;BME280;29823;47.404;8.566;2023-02-21T12:10:31;96666.94;;;17.45;51.67
39243;BME280;29823;47.404;8.566;2023-02-21T12:13:10;96654.94;;;18.01;50.88
39243;BME280;29823;47.404;8.566;2023-02-21T12:15:50;96653.41;;;17.50;51.68
39243;BME280;29823;47.404;8.566;2023-02-21T12:18:32;96648.28;;;17.54;52.46
39243;BME280;29823;47.404;8.566;2023-02-21T12:21:20;96643.78;;;18.91;48.60
39243;BME280;29823;47.404;8.566;2023-02-21T12:23:56;96639.03;;;19.12;46.69
39243;BME280;29823;47.404;8.566;2023-02-21T12:26:39;96628.94;;;19.27;45.82
39243;BME280;29823;47.404;8.566;2023-02-21T12:29:24;96629.22;;;19.59;44.43
39243;BME280;29823;47.404;8.566;2023-02-21T12:32:17;96623.19;;;19.62;44.74
39243;BME280;29823;47.404;8.566;2023-02-21T12:35:02;96625.00;;;19.43;44.50
39243;BME280;29823;47.404;8.566;2023-02-21T12:37:36;96608.78;;;21.21;42.63
39243;BME280;29823;47.404;8.566;2023-02-21T12:40:18;96610.84;;;20.92;43.62
39243;BME280;29823;47.404;8.566;2023-02-21T12:43:01;96598.59;;;22.85;41.29
39243;BME280;29823;47.404;8.566;2023-02-21T12:45:43;96604.28;;;20.93;42.65
39243;BME280;29823;47.404;8.566;2023-02-21T12:48:18;96594.00;;;21.59;39.56
39243;BME280;29823;47.404;8.566;2023-02-21T12:50:52;96596.41;;;21.61;39.16
39243;BME280;29823;47.404;8.566;2023-02-21T12:53:24;96586.25;;;22.25;38.42
39243;BME280;29823;47.404;8.566;2023-02-21T12:55:58;96575.34;;;23.67;36.70
39243;BME280;29823;47.404;8.566;2023-02-21T12:58:33;96574.41;;;23.06;37.16
39243;BME280;29823;47.404;8.566;2023-02-21T13:01:05;96577.84;;;23.55;37.72
39243;BME280;29823;47.404;8.566;2023-02-21T13:03:44;96574.13;;;23.29;36.97
39243;BME280;29823;47.404;8.566;2023-02-21T13:06:20;96561.16;;;21.24;40.27
39243;BME280;29823;47.404;8.566;2023-02-21T13:08:57;96557.44;;;19.75;41.52
39243;BME280;29823;47.404;8.566;2023-02-21T13:11:32;96559.22;;;18.94;44.29
39243;BME280;29823;47.404;8.566;2023-02-21T13:14:08;96554.50;;;17.39;48.46
39243;BME280;29823;47.404;8.566;2023-02-21T13:16:36;96546.84;;;16.51;49.13
39243;BME280;29823;47.404;8.566;2023-02-21T13:19:07;96543.03;;;16.37;52.88
39243;BME280;29823;47.404;8.566;2023-02-21T13:21:47;96543.09;;;15.76;54.45
39243;BME280;29823;47.404;8.566;2023-02-21T13:24:46;96536.34;;;14.95;59.19
39243;BME280;29823;47.404;8.566;2023-02-21T13:27:53;96533.69;;;15.00;57.91
39243;BME280;29823;47.404;8.566;2023-02-21T13:30:26;96531.31;;;15.04;55.81
39243;BME280;29823;47.404;8.566;2023-02-21T13:32:57;96528.31;;;15.00;56.52
39243;BME280;29823;47.404;8.566;2023-02-21T13:35:30;96520.19;;;14.95;56.72
39243;BME280;29823;47.404;8.566;2023-02-21T13:37:59;96502.31;;;14.48;60.07
39243;BME280;29823;47.404;8.566;2023-02-21T13:40:34;96511.25;;;14.53;58.90
39243;BME280;29823;47.404;8.566;2023-02-21T13:43:05;96507.00;;;14.62;57.81